Dinghai, China
Current Conditions -  °F | °C
As of 12:00 PM on Monday 22 Dec 2014 (Local Time) from ZSNB Reporting Station
Clear Clear  
Wind Chill: 42°   Ceiling: Unl
Heat Index: 46°   Visibility: 6mi
Dew Point:   Wind: 9mph
Humidity: 20%   Direction: 350°N
Pressure: 30.42"   Gusts: NA
Location:  30.02°N, 122.1°E
Report Text: ZSNB 220400Z 35004MPS 310V050 CAVOK 08/M14 Q1030 NOSIG
Loading
Personal Weather Stations






























Interactive Weather Map New forecast layout! Learn more

10-Day Weather Forecast

Advertisements
Track Severe Weather on mobile